KCBF/CBF METAR and TAF weather

Enter ICAO airport designator
Station Type Date Time Source
KCBF METAR 2024/04/15 10:15 UTC NOAA

KCBF 151015Z AUTO 10009KT 10SM CLR 13/M02 A2987 RMK AO2


Station Type Date Time Source
KCBF Decoded METAR 2024/04/15 10:15 UTC NOAA

Council Bluffs, IA, United States (KCBF) 41-16N 095-46W
Apr 15, 2024 - 06:15 AM EDT / 2024.04.15 1015 UTC
Wind: from the E (100 degrees) at 10 MPH (9 KT):0
Visibility: 10 mile(s):0
Sky conditions: clear
Temperature: 55 F (13 C)
Dew Point: 28 F (-2 C)
Relative Humidity: 35%
Pressure (altimeter): 29.87 in. Hg (1011 hPa)
ob: KCBF 151015Z AUTO 10009KT 10SM CLR 13/M02 A2987 RMK AO2
cycle: 10

Station Type Date Time Source
KCBF TAF UTC NOAA

Error!

Example: see airport list